createdAt,value
2018-05-31T00:01:18.098Z,19.27
2018-05-31T00:02:22.657Z,19.33
2018-05-31T00:04:48.615Z,19.31
2018-05-31T00:05:54.004Z,19.42
2018-05-31T00:06:58.545Z,19.50
2018-05-31T00:08:03.116Z,19.54
2018-05-31T00:09:07.745Z,19.44
2018-05-31T00:10:12.248Z,19.50
2018-05-31T00:11:16.757Z,19.58
2018-05-31T00:12:21.680Z,19.65
2018-05-31T00:13:26.226Z,19.54
2018-05-31T00:15:46.059Z,19.28
2018-05-31T00:16:50.719Z,19.27
2018-05-31T00:17:55.647Z,19.26
2018-05-31T00:19:00.440Z,19.34
2018-05-31T00:20:05.191Z,19.36
2018-05-31T00:21:09.780Z,19.35
2018-05-31T00:22:14.331Z,19.32
2018-05-31T00:26:02.107Z,19.10
2018-05-31T00:27:06.664Z,19.19
2018-05-31T00:28:11.570Z,19.22
2018-05-31T00:30:37.578Z,19.40
2018-05-31T00:31:51.870Z,19.38
2018-05-31T00:32:56.414Z,19.15
2018-05-31T00:34:00.912Z,19.04
2018-05-31T00:35:05.611Z,18.93
2018-05-31T00:36:10.129Z,18.83
2018-05-31T00:38:37.172Z,18.78
2018-05-31T00:39:41.708Z,18.87
2018-05-31T00:40:46.362Z,19.00
2018-05-31T00:42:06.329Z,19.00
2018-05-31T00:43:10.898Z,18.98
2018-05-31T00:44:15.548Z,18.90
2018-05-31T00:45:20.430Z,18.95
2018-05-31T00:46:24.993Z,18.84
2018-05-31T00:47:32.507Z,18.75
2018-05-31T00:48:44.511Z,18.67
2018-05-31T00:51:11.419Z,18.84
2018-05-31T00:52:20.031Z,18.96
2018-05-31T00:53:24.653Z,19.07
2018-05-31T00:54:33.815Z,19.17
2018-05-31T00:55:48.487Z,19.16
2018-05-31T00:58:20.543Z,19.13
2018-05-31T00:59:25.104Z,19.21
2018-05-31T01:00:29.731Z,19.22
2018-05-31T01:01:37.465Z,19.19
2018-05-31T01:02:42.120Z,19.19
2018-05-31T01:03:54.622Z,19.18
2018-05-31T01:05:07.049Z,19.21
2018-05-31T01:06:12.019Z,19.29
2018-05-31T01:07:16.660Z,19.29
2018-05-31T01:08:21.292Z,19.29
2018-05-31T01:09:25.886Z,19.25
2018-05-31T01:10:30.892Z,19.19
2018-05-31T01:11:47.438Z,19.17
2018-05-31T01:12:52.060Z,19.27
2018-05-31T01:13:56.672Z,19.31
2018-05-31T01:16:17.694Z,19.12
2018-05-31T01:17:22.700Z,19.00
2018-05-31T01:18:29.612Z,18.96
2018-05-31T01:19:34.141Z,18.80
2018-05-31T01:20:38.689Z,18.89
2018-05-31T01:21:54.604Z,18.92
2018-05-31T01:22:59.779Z,19.00
2018-05-31T01:24:10.547Z,18.94
2018-05-31T01:25:15.135Z,19.00
2018-05-31T01:26:19.765Z,19.02
2018-05-31T01:30:01.445Z,19.02
2018-05-31T01:31:15.539Z,19.08
2018-05-31T01:32:23.346Z,19.13
2018-05-31T01:33:27.970Z,19.12
2018-05-31T01:35:53.318Z,19.20
2018-05-31T01:36:57.950Z,19.06
2018-05-31T01:38:06.745Z,18.86
2018-05-31T01:40:32.988Z,18.80
2018-05-31T01:41:37.687Z,18.71
2018-05-31T01:42:52.345Z,18.71
2018-05-31T01:43:56.874Z,18.69
2018-05-31T01:45:01.955Z,18.73
2018-05-31T01:46:06.567Z,18.75
2018-05-31T01:47:11.140Z,18.66
2018-05-31T01:48:15.821Z,18.69
2018-05-31T01:49:20.859Z,18.74
2018-05-31T01:50:25.433Z,18.52
2018-05-31T01:51:37.804Z,18.48
2018-05-31T01:52:42.370Z,18.64
2018-05-31T01:53:46.992Z,18.68
2018-05-31T01:54:51.584Z,18.62
2018-05-31T01:57:24.184Z,18.53
2018-05-31T01:58:28.729Z,18.51
2018-05-31T01:59:33.338Z,18.35
2018-05-31T02:00:38.166Z,18.20
2018-05-31T02:03:11.085Z,18.23
2018-05-31T02:04:15.733Z,18.17
2018-05-31T02:06:42.052Z,18.27
2018-05-31T02:07:46.651Z,18.37
2018-05-31T02:08:51.177Z,18.35
2018-05-31T02:11:15.005Z,18.52
2018-05-31T02:12:19.726Z,18.54
2018-05-31T02:13:24.430Z,18.58
2018-05-31T02:14:32.498Z,18.55
2018-05-31T02:15:37.067Z,18.50
2018-05-31T02:18:03.257Z,18.46
2018-05-31T02:20:23.497Z,18.31
2018-05-31T02:21:28.146Z,18.34
2018-05-31T02:22:34.948Z,18.32
2018-05-31T02:23:39.727Z,18.33
2018-05-31T02:24:44.617Z,18.33
2018-05-31T02:25:49.327Z,18.34
2018-05-31T02:26:53.973Z,18.38
2018-05-31T02:27:58.658Z,18.38
2018-05-31T02:29:03.201Z,18.42
2018-05-31T02:30:07.802Z,18.39
2018-05-31T02:31:12.999Z,18.35
2018-05-31T02:32:17.578Z,18.31
2018-05-31T02:33:22.140Z,18.33
2018-05-31T02:34:26.669Z,18.31
2018-05-31T02:35:31.274Z,18.30
2018-05-31T02:36:35.952Z,18.33
2018-05-31T02:37:40.997Z,18.35
2018-05-31T02:38:45.702Z,18.32
2018-05-31T02:39:51.098Z,18.22
2018-05-31T02:40:55.786Z,18.21
2018-05-31T02:42:00.384Z,18.17
2018-05-31T02:43:04.929Z,18.18
2018-05-31T02:44:09.997Z,18.19
2018-05-31T02:45:14.519Z,18.14
2018-05-31T02:46:19.190Z,18.10
2018-05-31T02:47:23.849Z,18.18
2018-05-31T02:48:28.577Z,18.26
2018-05-31T02:49:33.249Z,18.26
2018-05-31T02:50:38.196Z,18.21
2018-05-31T02:51:42.710Z,18.25
2018-05-31T02:52:47.395Z,18.25
2018-05-31T02:53:52.075Z,18.26
2018-05-31T02:54:56.670Z,18.24
2018-05-31T02:56:01.250Z,18.11
2018-05-31T02:57:06.281Z,17.94
2018-05-31T02:58:10.928Z,17.85
2018-05-31T02:59:15.565Z,17.79
2018-05-31T03:00:20.131Z,17.70
2018-05-31T03:01:24.663Z,17.59
2018-05-31T03:02:29.218Z,17.55
2018-05-31T03:03:34.188Z,17.47
2018-05-31T03:04:39.822Z,17.50
2018-05-31T03:05:44.870Z,17.53
2018-05-31T03:06:49.498Z,17.64
2018-05-31T03:07:54.098Z,17.56
2018-05-31T03:08:58.798Z,17.66
2018-05-31T03:10:03.785Z,17.63
2018-05-31T03:11:08.445Z,17.61
2018-05-31T03:12:13.076Z,17.55
2018-05-31T03:13:17.767Z,17.63
2018-05-31T03:14:22.304Z,17.69
2018-05-31T03:15:26.885Z,17.34
2018-05-31T03:16:31.818Z,16.73
2018-05-31T03:17:36.456Z,16.27
2018-05-31T03:18:41.059Z,16.09
2018-05-31T03:19:45.628Z,16.22
2018-05-31T03:20:50.356Z,16.46
2018-05-31T03:21:55.013Z,16.59
2018-05-31T03:22:59.927Z,16.51
2018-05-31T03:24:04.497Z,16.54
2018-05-31T03:25:09.153Z,16.61
2018-05-31T03:26:13.802Z,16.57
2018-05-31T03:27:18.331Z,16.69
2018-05-31T03:28:22.891Z,16.82
2018-05-31T03:29:27.785Z,16.82
2018-05-31T03:30:32.434Z,16.89
2018-05-31T03:31:36.938Z,17.04
2018-05-31T03:32:41.677Z,17.11
2018-05-31T03:33:46.369Z,17.15
2018-05-31T03:34:50.918Z,17.25
2018-05-31T03:35:55.877Z,17.35
2018-05-31T03:37:00.534Z,17.38
2018-05-31T03:38:05.068Z,17.38
2018-05-31T03:39:09.613Z,17.32
2018-05-31T03:40:14.165Z,17.39
2018-05-31T03:41:19.089Z,17.35
2018-05-31T03:42:24.118Z,17.25
2018-05-31T03:43:28.812Z,17.19
2018-05-31T03:44:33.319Z,17.23
2018-05-31T03:45:37.947Z,17.30
2018-05-31T03:46:42.559Z,17.39
2018-05-31T03:47:47.061Z,17.46
2018-05-31T03:48:52.145Z,17.45
2018-05-31T03:49:56.954Z,17.48
2018-05-31T03:51:02.084Z,17.43
2018-05-31T03:52:06.759Z,17.37
2018-05-31T03:53:11.908Z,17.31
2018-05-31T03:54:16.577Z,17.38
2018-05-31T03:55:21.781Z,17.32
2018-05-31T03:56:26.458Z,17.19
2018-05-31T03:57:31.108Z,17.15
2018-05-31T03:58:35.856Z,17.27
2018-05-31T03:59:40.562Z,17.36
2018-05-31T04:00:45.249Z,17.33
2018-05-31T04:01:50.313Z,17.27
2018-05-31T04:02:54.989Z,17.16
2018-05-31T04:03:59.667Z,17.18
2018-05-31T04:05:04.341Z,17.24
2018-05-31T04:06:09.072Z,17.24
2018-05-31T04:07:13.751Z,17.36
2018-05-31T04:08:18.821Z,17.50
2018-05-31T04:09:23.494Z,17.58
2018-05-31T04:10:28.226Z,17.50
2018-05-31T04:11:32.942Z,17.49
2018-05-31T04:12:37.740Z,17.55
2018-05-31T04:13:42.410Z,17.63
2018-05-31T04:14:47.548Z,17.72
2018-05-31T04:15:52.261Z,17.77
2018-05-31T04:16:56.978Z,17.84
2018-05-31T04:18:01.646Z,17.86
2018-05-31T04:19:06.329Z,17.93
2018-05-31T04:20:11.028Z,18.00
2018-05-31T04:21:16.050Z,18.06
2018-05-31T04:22:20.733Z,18.11
2018-05-31T04:23:25.420Z,18.17
2018-05-31T04:24:30.139Z,18.18
2018-05-31T04:25:34.816Z,18.15
2018-05-31T04:26:39.648Z,18.16
2018-05-31T04:27:44.773Z,18.12
2018-05-31T04:28:49.441Z,18.03
2018-05-31T04:29:54.093Z,17.97
2018-05-31T04:30:59.161Z,17.83
2018-05-31T04:32:03.828Z,17.72
2018-05-31T04:33:08.527Z,17.56
2018-05-31T04:34:13.989Z,17.59
2018-05-31T04:35:18.644Z,17.59
2018-05-31T04:36:23.330Z,17.61
2018-05-31T04:37:28.035Z,17.70
2018-05-31T04:38:32.766Z,17.70
2018-05-31T04:39:37.466Z,17.73
2018-05-31T04:40:42.758Z,17.64
2018-05-31T04:41:47.643Z,17.58
2018-05-31T04:42:52.383Z,17.55
2018-05-31T04:43:57.058Z,17.58
2018-05-31T04:45:01.750Z,17.65
2018-05-31T04:46:06.456Z,17.67
2018-05-31T04:47:11.505Z,17.67
2018-05-31T04:48:16.165Z,17.59
2018-05-31T04:49:20.802Z,17.63
2018-05-31T04:50:25.505Z,17.62
2018-05-31T04:51:30.211Z,17.67
2018-05-31T04:52:34.874Z,17.71
2018-05-31T04:53:39.902Z,17.57
2018-05-31T04:54:44.562Z,17.58
2018-05-31T04:55:49.202Z,17.60
2018-05-31T04:56:53.725Z,17.78
2018-05-31T04:57:58.435Z,17.74
2018-05-31T04:59:03.589Z,17.85
2018-05-31T05:00:08.154Z,17.81
2018-05-31T05:01:12.845Z,17.89
2018-05-31T05:02:17.537Z,17.82
2018-05-31T05:03:22.242Z,17.91
2018-05-31T05:04:26.947Z,17.88
2018-05-31T05:05:31.625Z,17.93
2018-05-31T05:06:36.359Z,17.94
2018-05-31T05:07:41.121Z,18.04
2018-05-31T05:08:45.785Z,18.10
2018-05-31T05:09:52.174Z,18.08
2018-05-31T05:10:57.749Z,18.09
2018-05-31T05:12:03.688Z,18.14
2018-05-31T05:13:08.284Z,18.10
2018-05-31T05:14:13.060Z,18.21
2018-05-31T05:15:17.857Z,18.26
2018-05-31T05:16:22.968Z,18.39
2018-05-31T05:17:27.964Z,18.48
2018-05-31T05:18:32.522Z,18.50
2018-05-31T05:19:37.076Z,18.53
2018-05-31T05:20:41.735Z,18.63
2018-05-31T05:21:46.321Z,18.74
2018-05-31T05:22:51.010Z,18.72
2018-05-31T05:23:56.076Z,18.79
2018-05-31T05:25:00.650Z,18.83
2018-05-31T05:26:05.437Z,19.11
2018-05-31T05:27:10.029Z,19.16
2018-05-31T05:28:14.578Z,19.07
2018-05-31T05:29:19.134Z,18.94
2018-05-31T05:30:24.335Z,18.98
2018-05-31T05:31:29.229Z,19.00
2018-05-31T05:32:34.025Z,19.21
2018-05-31T05:33:38.614Z,19.41
2018-05-31T05:34:43.680Z,19.53
2018-05-31T05:35:48.408Z,19.56
2018-05-31T05:36:53.442Z,19.65
2018-05-31T05:40:41.035Z,19.88
2018-05-31T05:41:45.761Z,20.08
2018-05-31T05:42:50.367Z,20.10
2018-05-31T05:43:55.536Z,20.14
2018-05-31T05:45:00.450Z,20.16
2018-05-31T05:46:05.533Z,20.13
2018-05-31T05:47:10.284Z,20.24
2018-05-31T05:48:14.847Z,20.24
2018-05-31T05:49:19.832Z,20.20
2018-05-31T05:50:25.624Z,20.10
2018-05-31T05:51:31.325Z,20.33
2018-05-31T05:52:36.124Z,20.33
2018-05-31T05:53:40.856Z,20.23
2018-05-31T05:54:45.501Z,20.44
2018-05-31T05:55:51.083Z,20.58
2018-05-31T05:56:56.112Z,20.69
2018-05-31T05:58:01.613Z,20.31
2018-05-31T05:59:07.219Z,19.69
2018-05-31T06:00:12.021Z,19.63
2018-05-31T06:01:16.776Z,19.86
2018-05-31T06:02:21.580Z,19.82
2018-05-31T06:03:28.002Z,20.18
2018-05-31T06:04:32.767Z,20.55
2018-05-31T06:05:37.383Z,20.65
2018-05-31T06:06:42.068Z,20.89
2018-05-31T06:07:46.812Z,20.78
2018-05-31T06:08:51.620Z,20.79
2018-05-31T06:09:56.639Z,20.70
2018-05-31T06:11:01.423Z,20.74
2018-05-31T06:12:06.142Z,20.78
2018-05-31T06:13:10.913Z,20.92
2018-05-31T06:14:15.640Z,21.00
2018-05-31T06:15:20.364Z,20.76
2018-05-31T06:16:25.443Z,20.59
2018-05-31T06:17:30.150Z,20.58
2018-05-31T06:18:34.853Z,20.28
2018-05-31T06:19:39.910Z,20.21
2018-05-31T06:20:44.722Z,20.41
2018-05-31T06:21:51.967Z,20.48
2018-05-31T06:22:57.203Z,20.57
2018-05-31T06:24:01.959Z,20.72
2018-05-31T06:25:07.005Z,20.89
2018-05-31T06:27:15.343Z,21.21
2018-05-31T06:28:20.120Z,20.91
2018-05-31T06:29:25.347Z,20.97
2018-05-31T06:30:30.138Z,20.61
2018-05-31T06:31:34.917Z,20.82
2018-05-31T06:32:40.064Z,20.96
2018-05-31T06:33:44.887Z,21.04
2018-05-31T06:34:49.600Z,20.83
2018-05-31T06:35:54.629Z,20.82
2018-05-31T06:36:59.352Z,21.03
2018-05-31T06:38:04.062Z,20.97
2018-05-31T06:39:08.928Z,20.92
2018-05-31T06:40:13.962Z,21.23
2018-05-31T06:41:18.835Z,21.53
2018-05-31T06:42:24.066Z,21.88
2018-05-31T06:43:28.874Z,21.85
2018-05-31T06:44:33.800Z,22.03
2018-05-31T06:45:38.554Z,22.05
2018-05-31T06:46:44.214Z,21.84
2018-05-31T06:49:23.077Z,21.78
2018-05-31T06:50:27.904Z,21.69
2018-05-31T06:51:39.940Z,21.76
2018-05-31T06:52:44.693Z,21.51
2018-05-31T06:53:49.492Z,21.64
2018-05-31T06:54:55.222Z,21.77
2018-05-31T06:56:00.954Z,21.52
2018-05-31T06:57:05.989Z,21.53
2018-05-31T06:58:10.755Z,21.93
2018-05-31T06:59:15.532Z,22.09
2018-05-31T07:00:20.328Z,22.23
2018-05-31T07:01:25.503Z,22.33
2018-05-31T07:02:31.081Z,22.49
2018-05-31T07:03:36.141Z,22.52
2018-05-31T07:04:43.388Z,22.68
2018-05-31T07:05:48.115Z,22.78
2018-05-31T07:06:53.412Z,22.65
2018-05-31T07:07:59.939Z,22.80
2018-05-31T07:09:05.202Z,22.67
2018-05-31T07:10:10.521Z,22.77
2018-05-31T07:11:15.269Z,22.90
2018-05-31T07:12:21.804Z,22.71
2018-05-31T07:13:27.067Z,22.74
2018-05-31T07:14:32.060Z,23.01
2018-05-31T07:15:36.871Z,22.86
2018-05-31T07:16:41.589Z,22.93
2018-05-31T07:17:46.691Z,23.11
2018-05-31T07:18:51.688Z,23.07
2018-05-31T07:19:56.416Z,23.22
2018-05-31T07:21:02.451Z,23.20
2018-05-31T07:22:07.146Z,23.14
2018-05-31T07:23:11.926Z,22.95
2018-05-31T07:24:18.860Z,22.84
2018-05-31T07:25:23.891Z,22.83
2018-05-31T07:26:28.641Z,22.52
2018-05-31T07:27:33.245Z,22.21
2018-05-31T07:28:38.201Z,22.27
2018-05-31T07:29:42.944Z,22.16
2018-05-31T07:30:48.254Z,22.44
2018-05-31T07:31:53.149Z,22.66
2018-05-31T07:32:57.912Z,22.81
2018-05-31T07:34:03.257Z,22.56
2018-05-31T07:35:07.919Z,22.32
2018-05-31T07:36:17.494Z,22.45
2018-05-31T07:37:22.449Z,22.45
2018-05-31T07:38:27.366Z,22.50
2018-05-31T07:39:32.585Z,22.56
2018-05-31T07:40:37.446Z,22.62
2018-05-31T07:41:42.190Z,22.78
2018-05-31T07:42:47.005Z,22.89
2018-05-31T07:43:51.993Z,22.98
2018-05-31T07:44:56.884Z,23.14
2018-05-31T07:46:02.059Z,23.27
2018-05-31T07:47:07.298Z,23.49
2018-05-31T07:48:13.952Z,23.53
2018-05-31T07:49:18.888Z,23.39
2018-05-31T07:50:23.808Z,23.27
2018-05-31T07:51:28.800Z,23.35
2018-05-31T07:52:34.748Z,23.31
2018-05-31T07:53:39.346Z,23.25
2018-05-31T07:54:43.922Z,23.41
2018-05-31T07:55:49.040Z,23.52
2018-05-31T07:56:53.846Z,23.67
2018-05-31T07:57:59.878Z,23.65
2018-05-31T07:59:05.185Z,23.85
2018-05-31T08:00:09.835Z,23.78
2018-05-31T08:01:14.457Z,23.68
2018-05-31T08:02:23.215Z,23.46
2018-05-31T08:03:28.119Z,23.42
2018-05-31T08:04:33.406Z,23.30
2018-05-31T08:05:38.765Z,23.23
2018-05-31T08:06:43.866Z,23.43
2018-05-31T08:07:48.583Z,23.66
2018-05-31T08:08:53.360Z,23.89
2018-05-31T08:09:58.120Z,23.72
2018-05-31T08:11:03.076Z,23.78
2018-05-31T08:12:07.885Z,23.94
2018-05-31T08:13:12.651Z,23.54
2018-05-31T08:14:17.277Z,23.41
2018-05-31T08:16:35.698Z,23.52
2018-05-31T08:17:40.800Z,23.75
2018-05-31T08:18:45.560Z,24.00
2018-05-31T08:19:50.359Z,23.94
2018-05-31T08:20:54.960Z,24.13
2018-05-31T08:22:00.073Z,24.39
2018-05-31T08:23:04.716Z,24.64
2018-05-31T08:24:09.841Z,24.67
2018-05-31T08:25:14.522Z,24.75
2018-05-31T08:26:19.228Z,24.49
2018-05-31T08:27:23.865Z,24.04
2018-05-31T08:28:29.414Z,24.10
2018-05-31T08:29:34.029Z,24.25
2018-05-31T08:30:39.094Z,24.66
2018-05-31T08:31:43.854Z,25.02
2018-05-31T08:32:48.609Z,25.19
2018-05-31T08:35:07.711Z,24.96
2018-05-31T08:36:12.623Z,25.26
2018-05-31T08:37:17.708Z,25.42
2018-05-31T08:38:22.510Z,25.30
2018-05-31T08:39:27.205Z,25.07
2018-05-31T08:40:31.850Z,24.82
2018-05-31T08:41:36.420Z,24.61
2018-05-31T08:42:41.008Z,24.61
2018-05-31T08:43:45.861Z,25.08
2018-05-31T08:44:50.541Z,25.38
2018-05-31T08:45:55.103Z,25.29
2018-05-31T08:46:59.680Z,25.70
2018-05-31T08:48:04.474Z,25.71
2018-05-31T08:49:09.202Z,25.75
2018-05-31T08:50:14.233Z,25.91
2018-05-31T08:51:18.897Z,25.99
2018-05-31T08:52:23.521Z,25.63
2018-05-31T08:53:28.238Z,25.66
2018-05-31T08:54:32.915Z,25.75
2018-05-31T08:55:37.479Z,25.27
2018-05-31T08:56:42.072Z,25.13
2018-05-31T08:57:46.804Z,25.31
2018-05-31T08:58:51.350Z,25.27
2018-05-31T08:59:56.070Z,25.38
2018-05-31T09:01:02.192Z,25.59
2018-05-31T09:02:07.278Z,25.85
2018-05-31T09:03:11.979Z,25.71
2018-05-31T09:04:16.582Z,25.79
2018-05-31T09:05:22.577Z,26.03
2018-05-31T09:06:27.341Z,26.33
2018-05-31T09:07:32.070Z,26.30
2018-05-31T09:08:37.161Z,26.53
2018-05-31T09:09:42.093Z,26.57
2018-05-31T09:10:47.371Z,26.52
2018-05-31T09:11:51.940Z,26.79
2018-05-31T09:12:56.840Z,27.23
2018-05-31T09:14:03.460Z,27.43
2018-05-31T09:15:08.934Z,27.34
2018-05-31T09:16:13.519Z,26.63
2018-05-31T09:17:18.074Z,26.36
2018-05-31T09:18:22.820Z,26.45
2018-05-31T09:19:27.522Z,26.40
2018-05-31T09:20:32.146Z,26.51
2018-05-31T09:21:37.120Z,26.63
2018-05-31T09:22:42.166Z,26.87
2018-05-31T09:23:46.754Z,27.33
2018-05-31T09:24:51.430Z,27.09
2018-05-31T09:25:56.002Z,27.07
2018-05-31T09:27:00.980Z,27.29
2018-05-31T09:28:06.719Z,27.43
2018-05-31T09:29:11.713Z,27.18
2018-05-31T09:30:23.822Z,27.04
2018-05-31T09:31:28.629Z,27.03
2018-05-31T09:32:33.866Z,26.87
2018-05-31T09:33:38.444Z,26.90
2018-05-31T09:34:43.335Z,27.01
2018-05-31T09:35:48.168Z,27.13
2018-05-31T09:36:52.890Z,26.93
2018-05-31T09:37:57.497Z,26.76
2018-05-31T09:39:04.004Z,27.08
2018-05-31T09:40:09.385Z,27.42
2018-05-31T09:41:14.615Z,26.93
2018-05-31T09:42:19.391Z,26.91
2018-05-31T09:43:24.030Z,26.94
2018-05-31T09:44:28.807Z,27.25
2018-05-31T09:45:33.678Z,27.52
2018-05-31T09:46:38.315Z,27.29
2018-05-31T09:47:43.390Z,27.36
2018-05-31T09:48:48.197Z,27.56
2018-05-31T09:49:52.742Z,27.78
2018-05-31T09:50:57.488Z,27.82
2018-05-31T09:52:02.307Z,27.69
2018-05-31T09:53:06.982Z,27.06
2018-05-31T09:54:12.069Z,26.94
2018-05-31T09:55:16.680Z,27.05
2018-05-31T09:56:21.471Z,26.85
2018-05-31T09:57:26.490Z,26.89
2018-05-31T09:58:31.146Z,27.06
2018-05-31T09:59:35.911Z,27.46
2018-05-31T10:00:41.034Z,27.69
2018-05-31T10:01:45.689Z,27.81
2018-05-31T10:02:51.120Z,28.18
2018-05-31T10:03:55.735Z,28.58
2018-05-31T10:05:00.323Z,27.96
2018-05-31T10:06:05.062Z,27.64
2018-05-31T10:07:10.235Z,27.78
2018-05-31T10:08:15.013Z,27.71
2018-05-31T10:09:19.721Z,27.53
2018-05-31T10:10:24.328Z,27.34
2018-05-31T10:11:29.106Z,27.57
2018-05-31T10:12:33.800Z,27.61
2018-05-31T10:13:38.892Z,27.98
2018-05-31T10:14:43.452Z,28.12
2018-05-31T10:15:48.113Z,28.15
2018-05-31T10:16:52.815Z,28.20
2018-05-31T10:17:57.358Z,28.07
2018-05-31T10:19:02.074Z,28.06
2018-05-31T10:20:07.610Z,28.17
2018-05-31T10:21:12.207Z,28.04
2018-05-31T10:22:16.822Z,27.84
2018-05-31T10:23:21.579Z,27.68
2018-05-31T10:24:26.273Z,27.48
2018-05-31T10:25:30.861Z,27.61
2018-05-31T10:26:35.859Z,27.57
2018-05-31T10:27:40.537Z,27.76
2018-05-31T10:28:45.250Z,27.97
2018-05-31T10:29:49.984Z,27.93
2018-05-31T10:30:54.735Z,27.93
2018-05-31T10:31:59.449Z,27.57
2018-05-31T10:33:04.403Z,27.26
2018-05-31T10:34:09.090Z,26.89
2018-05-31T10:35:13.944Z,26.94
2018-05-31T10:36:18.570Z,26.94
2018-05-31T10:37:24.114Z,26.92
2018-05-31T10:42:36.632Z,27.27
2018-05-31T10:43:42.917Z,27.39
2018-05-31T10:44:47.797Z,27.43
2018-05-31T10:53:52.208Z,26.80
2018-05-31T10:54:57.153Z,26.85
2018-05-31T10:56:01.871Z,26.90
2018-05-31T10:57:07.470Z,26.83
2018-05-31T10:58:12.087Z,26.61
2018-05-31T10:59:27.727Z,25.57
2018-05-31T11:00:54.954Z,25.12
2018-05-31T11:02:00.978Z,24.83
2018-05-31T11:03:06.734Z,24.75
2018-05-31T11:04:11.532Z,24.41
2018-05-31T11:05:17.183Z,24.26
2018-05-31T11:06:22.429Z,24.21
2018-05-31T11:07:28.340Z,23.73
2018-05-31T11:08:35.169Z,23.91
2018-05-31T11:09:40.673Z,23.57
2018-05-31T11:10:45.562Z,23.30
2018-05-31T11:11:50.404Z,23.27
2018-05-31T11:12:55.426Z,23.26
2018-05-31T11:14:00.000Z,23.30
2018-05-31T11:15:05.900Z,23.23
2018-05-31T11:16:24.629Z,23.02
2018-05-31T11:18:52.192Z,22.59
2018-05-31T11:20:01.960Z,22.23
2018-05-31T11:21:09.280Z,21.49
2018-05-31T11:22:31.240Z,20.26
2018-05-31T11:23:54.918Z,19.36
2018-05-31T11:25:12.057Z,19.06
2018-05-31T11:27:40.624Z,19.13
2018-05-31T11:28:46.866Z,19.39
2018-05-31T11:29:53.098Z,19.64
2018-05-31T11:30:58.067Z,19.94
2018-05-31T11:32:08.715Z,20.09
2018-05-31T11:33:23.904Z,20.22
2018-05-31T11:34:34.708Z,20.67
2018-05-31T11:35:39.578Z,20.84
2018-05-31T11:36:44.389Z,20.82
2018-05-31T11:37:49.435Z,21.01
2018-05-31T11:38:54.235Z,21.14
2018-05-31T11:40:00.366Z,20.90
2018-05-31T11:41:05.201Z,21.14
2018-05-31T11:42:10.049Z,21.47
2018-05-31T11:43:14.840Z,21.64
2018-05-31T11:44:19.675Z,21.79
2018-05-31T11:45:24.833Z,21.88
2018-05-31T11:46:31.616Z,21.97
2018-05-31T11:47:36.213Z,22.00
2018-05-31T11:48:40.969Z,22.10
2018-05-31T11:49:45.593Z,22.14
2018-05-31T11:50:50.354Z,22.18
2018-05-31T11:51:56.396Z,22.37
2018-05-31T11:53:01.588Z,22.32
2018-05-31T11:54:06.362Z,22.32
2018-05-31T11:55:11.140Z,22.28
2018-05-31T11:56:16.511Z,22.26
2018-05-31T11:57:23.182Z,22.30
2018-05-31T11:58:30.536Z,22.35
2018-05-31T11:59:36.491Z,21.97
2018-05-31T12:00:41.736Z,21.50
2018-05-31T12:01:51.676Z,21.24
2018-05-31T12:02:56.567Z,21.37
2018-05-31T12:04:01.541Z,21.45
2018-05-31T12:05:06.472Z,21.53
2018-05-31T12:06:23.186Z,21.60
2018-05-31T12:07:30.046Z,21.92
2018-05-31T12:08:35.167Z,22.29
2018-05-31T12:09:41.037Z,22.42
2018-05-31T12:10:45.822Z,22.23
2018-05-31T12:11:50.545Z,22.37
2018-05-31T12:13:00.349Z,21.74
2018-05-31T12:14:05.176Z,21.46
2018-05-31T13:01:52.384Z,22.63
2018-05-31T13:02:57.154Z,22.73
2018-05-31T13:04:01.907Z,22.60
2018-05-31T13:05:06.854Z,22.62
2018-05-31T13:06:11.664Z,22.52
2018-05-31T13:07:16.719Z,22.36
2018-05-31T13:08:21.426Z,21.88
2018-05-31T13:09:26.398Z,21.62
2018-05-31T13:10:31.047Z,21.64
2018-05-31T13:11:36.227Z,21.71
2018-05-31T13:12:41.143Z,21.88
2018-05-31T13:13:46.296Z,22.06
2018-05-31T13:14:51.046Z,22.18
2018-05-31T13:15:55.708Z,22.16
2018-05-31T13:17:00.579Z,22.36
2018-05-31T13:18:05.256Z,22.47
2018-05-31T13:19:09.989Z,22.58
2018-05-31T13:20:15.052Z,22.41
2018-05-31T13:21:19.845Z,22.03
2018-05-31T13:22:24.690Z,22.01
2018-05-31T13:23:29.583Z,21.90
2018-05-31T13:24:34.178Z,21.98
2018-05-31T13:25:40.291Z,22.13
2018-05-31T13:26:46.219Z,22.28
2018-05-31T13:27:50.811Z,22.31
2018-05-31T13:28:55.613Z,22.17
2018-05-31T13:30:00.218Z,22.30
2018-05-31T13:31:04.989Z,22.39
2018-05-31T13:32:09.730Z,22.52
2018-05-31T13:33:14.992Z,22.77
2018-05-31T13:34:19.665Z,22.94
2018-05-31T13:35:24.326Z,23.01
2018-05-31T13:36:29.042Z,23.14
2018-05-31T13:37:33.619Z,23.05
2018-05-31T13:38:38.476Z,23.13
2018-05-31T13:39:44.270Z,23.05
2018-05-31T13:40:48.875Z,22.65
2018-05-31T13:41:53.595Z,22.61
2018-05-31T13:42:58.236Z,22.47
2018-05-31T13:44:02.892Z,22.43
2018-05-31T13:45:07.910Z,22.56
2018-05-31T13:46:13.042Z,22.74
2018-05-31T13:47:18.166Z,23.00
2018-05-31T13:48:22.943Z,23.25
2018-05-31T13:49:27.499Z,23.61
2018-05-31T13:50:32.075Z,23.75
2018-05-31T13:51:36.767Z,23.55
2018-05-31T13:52:41.804Z,23.35
2018-05-31T13:53:46.389Z,23.00
2018-05-31T13:54:51.112Z,22.66
2018-05-31T13:55:55.741Z,22.55
2018-05-31T13:57:00.456Z,22.69
2018-05-31T13:58:05.097Z,22.98
2018-05-31T13:59:10.029Z,23.27
2018-05-31T14:00:14.753Z,23.62
2018-05-31T14:01:19.338Z,24.03
2018-05-31T14:02:24.068Z,24.25
2018-05-31T14:03:28.696Z,24.56
2018-05-31T14:04:33.399Z,24.91
2018-05-31T14:05:38.292Z,24.92
2018-05-31T14:06:42.976Z,25.32
2018-05-31T14:07:47.589Z,25.21
2018-05-31T14:08:52.417Z,23.53
2018-05-31T14:09:57.929Z,23.56
2018-05-31T14:11:02.620Z,23.13
2018-05-31T14:12:07.632Z,23.44
2018-05-31T14:13:12.326Z,23.84
2018-05-31T14:14:17.058Z,24.44
2018-05-31T14:15:21.765Z,24.78
2018-05-31T14:16:26.433Z,25.09
2018-05-31T14:17:31.139Z,25.54
2018-05-31T14:18:35.856Z,25.67
2018-05-31T14:19:40.474Z,25.52
2018-05-31T14:20:45.201Z,25.99
2018-05-31T14:21:49.933Z,25.41
2018-05-31T14:22:54.638Z,24.92
2018-05-31T14:24:00.158Z,24.19
2018-05-31T14:25:05.721Z,24.02
2018-05-31T14:26:10.467Z,23.82
2018-05-31T14:27:15.481Z,23.40
2018-05-31T14:28:20.206Z,23.75
2018-05-31T14:29:24.901Z,23.75
2018-05-31T14:30:29.880Z,23.91
2018-05-31T14:31:34.715Z,24.05
2018-05-31T14:32:39.388Z,24.00
2018-05-31T14:33:44.255Z,24.17
2018-05-31T14:34:49.079Z,24.33
2018-05-31T14:35:53.882Z,24.24
2018-05-31T14:36:59.151Z,23.78
2018-05-31T14:38:03.924Z,23.96
2018-05-31T14:39:08.663Z,24.30
2018-05-31T14:40:13.370Z,24.57
2018-05-31T14:41:18.087Z,24.02
2018-05-31T14:42:22.753Z,23.92
2018-05-31T14:43:27.818Z,24.25
2018-05-31T14:44:32.565Z,24.98
2018-05-31T14:45:37.266Z,26.03
2018-05-31T14:46:41.995Z,26.61
2018-05-31T14:47:46.870Z,26.64
2018-05-31T14:48:51.573Z,26.22
2018-05-31T14:49:56.623Z,26.10
2018-05-31T14:51:01.311Z,27.04
2018-05-31T14:52:05.982Z,27.13
2018-05-31T14:53:10.657Z,26.87
2018-05-31T14:54:15.382Z,27.09
2018-05-31T14:55:20.067Z,26.62
2018-05-31T14:56:25.197Z,26.46
2018-05-31T14:57:29.830Z,26.60
2018-05-31T14:58:34.506Z,27.03
2018-05-31T14:59:39.263Z,27.35
2018-05-31T15:00:45.173Z,28.19
2018-05-31T15:01:49.991Z,28.15
2018-05-31T15:02:55.118Z,27.43
2018-05-31T15:03:59.859Z,27.22
2018-05-31T15:05:04.661Z,26.85
2018-05-31T15:06:09.483Z,26.81
2018-05-31T15:07:14.221Z,26.97
2018-05-31T15:08:19.241Z,27.14
2018-05-31T15:09:24.894Z,27.55
2018-05-31T15:10:29.577Z,27.86
2018-05-31T15:11:34.344Z,27.99
2018-05-31T15:12:39.124Z,28.28
2018-05-31T15:13:44.745Z,28.53
2018-05-31T15:14:49.489Z,28.34
2018-05-31T15:15:54.539Z,28.47
2018-05-31T15:16:59.214Z,28.23
2018-05-31T15:18:03.900Z,27.82
2018-05-31T15:19:08.660Z,27.85
2018-05-31T15:20:13.357Z,27.55
2018-05-31T15:21:18.056Z,27.37
2018-05-31T15:22:23.114Z,27.27
2018-05-31T15:23:27.800Z,26.80
2018-05-31T15:24:32.523Z,26.76
2018-05-31T15:25:37.252Z,27.08
2018-05-31T15:26:41.939Z,26.83
2018-05-31T15:27:46.661Z,26.73
2018-05-31T15:28:51.626Z,26.75
2018-05-31T15:29:56.355Z,26.73
2018-05-31T15:31:01.021Z,26.67
2018-05-31T15:32:05.730Z,26.33
2018-05-31T15:33:10.442Z,26.04
2018-05-31T15:34:15.122Z,26.42
2018-05-31T15:35:20.150Z,26.84
2018-05-31T15:36:24.968Z,26.96